Time;durP1;ratioP1;P1;durP2;ratioP2;P2;SDS_P1;SDS_P2;PMS_P1;PMS_P2;Temp;Humidity;BMP_temperature;BMP_pressure;BME280_temperature;BME280_humidity;BME280_pressure;Samples;Min_cycle;Max_cycle;Signal;HPM_P1;HPM_P2
2022/11/12 00:01:04;;;;;;;;;;;15.80;93.90;;;;;;5093967;28;19908;-39
2022/11/12 00:03:29;;;;;;;;;;;15.80;93.90;;;;;;5093625;28;19908;-40
2022/11/12 00:05:55;;;;;;;;;;;15.80;93.90;;;;;;5093601;28;19912;-39
2022/11/12 00:08:20;;;;;;;;;;;15.80;93.90;;;;;;5093440;28;19920;-39
2022/11/12 00:10:46;;;;;;;;;;;15.80;93.90;;;;;;5093605;28;20386;-39
2022/11/12 00:13:12;;;;;;;;;;;15.80;94.00;;;;;;5093695;28;19908;-40
2022/11/12 00:15:38;;;;;;;;;;;15.80;94.00;;;;;;5093375;28;20018;-39
2022/11/12 00:18:03;;;;;;;;;;;15.80;94.00;;;;;;5093296;28;19954;-40
2022/11/12 00:20:29;;;;;;;;;;;15.80;94.00;;;;;;5093805;28;19931;-39
2022/11/12 00:22:54;;;;;;;;;;;15.80;94.00;;;;;;5093329;28;19994;-40
2022/11/12 00:25:19;;;;;;;;;;;15.80;94.00;;;;;;5093521;28;19912;-40
2022/11/12 00:27:45;;;;;;;;;;;15.80;94.00;;;;;;5093306;28;20374;-39
2022/11/12 00:30:11;;;;;;;;;;;15.80;94.00;;;;;;5093822;28;19915;-39
2022/11/12 00:32:36;;;;;;;;;;;15.80;94.10;;;;;;5097359;28;20004;-39
2022/11/12 00:35:03;;;;;;;;;;;15.80;94.10;;;;;;5097245;28;19912;-39
2022/11/12 00:37:28;;;;;;;;;;;15.70;94.10;;;;;;5097405;28;19916;-39
2022/11/12 00:39:53;;;;;;;;;;;15.70;94.10;;;;;;5097610;28;19908;-39
2022/11/12 00:42:19;;;;;;;;;;;15.80;94.10;;;;;;5097150;28;19962;-39
2022/11/12 00:44:44;;;;;;;;;;;15.70;94.10;;;;;;5097159;28;20023;-39
2022/11/12 00:47:10;;;;;;;;;;;15.70;94.10;;;;;;5097087;28;19953;-39
2022/11/12 00:49:35;;;;;;;;;;;15.70;94.10;;;;;;5097095;28;19961;-39
2022/11/12 00:52:01;;;;;;;;;;;15.70;94.10;;;;;;5096673;28;19912;-39
2022/11/12 00:54:26;;;;;;;;;;;15.70;94.10;;;;;;5096933;28;19915;-39
2022/11/12 00:56:52;;;;;;;;;;;15.70;94.20;;;;;;5096969;28;20285;-40
2022/11/12 00:59:17;;;;;;;;;;;15.70;94.10;;;;;;5096733;28;19919;-39
2022/11/12 01:01:43;;;;;;;;;;;15.70;94.20;;;;;;5096802;28;19908;-39
2022/11/12 01:04:08;;;;;;;;;;;15.70;94.20;;;;;;5096828;28;19908;-39
2022/11/12 01:06:34;;;;;;;;;;;15.70;94.20;;;;;;5096797;28;19912;-39
2022/11/12 01:08:59;;;;;;;;;;;15.70;94.20;;;;;;5096639;28;19920;-40
2022/11/12 01:11:28;;;;;;;;;;;15.70;94.20;;;;;;5096259;28;19912;-39
2022/11/12 01:13:55;;;;;;;;;;;15.70;94.20;;;;;;5096477;28;19908;-39
2022/11/12 01:16:22;;;;;;;;;;;15.70;94.20;;;;;;5078132;28;20006;-40
2022/11/12 01:18:50;;;;;;;;;;;15.70;94.20;;;;;;5096596;28;19962;-39
2022/11/12 01:21:16;;;;;;;;;;;15.60;94.20;;;;;;5096554;28;19908;-39
2022/11/12 01:23:42;;;;;;;;;;;15.70;94.30;;;;;;5078315;28;20439;-39
2022/11/12 01:26:09;;;;;;;;;;;15.60;94.30;;;;;;5096526;28;19919;-39
2022/11/12 01:28:35;;;;;;;;;;;15.70;94.30;;;;;;5096436;28;19916;-39
2022/11/12 01:31:11;;;;;;;;;;;15.60;94.50;;;;;;5096259;28;19908;-39
2022/11/12 01:33:37;;;;;;;;;;;15.60;94.30;;;;;;5095895;28;19959;-39
2022/11/12 01:36:02;;;;;;;;;;;15.60;94.30;;;;;;5095859;28;19948;-39
2022/11/12 01:38:28;;;;;;;;;;;15.60;94.30;;;;;;5095768;28;19916;-39
2022/11/12 01:40:53;;;;;;;;;;;15.60;94.30;;;;;;5096157;28;19998;-39
2022/11/12 01:43:19;;;;;;;;;;;15.60;94.30;;;;;;5095224;28;20286;-39
2022/11/12 01:45:46;;;;;;;;;;;15.60;94.30;;;;;;5095746;28;19915;-39
2022/11/12 01:48:22;;;;;;;;;;;15.60;94.30;;;;;;5095972;28;19912;-39
2022/11/12 01:50:47;;;;;;;;;;;15.60;94.30;;;;;;5095780;28;19912;-39
2022/11/12 01:53:13;;;;;;;;;;;15.60;94.40;;;;;;5096247;28;20328;-39
2022/11/12 01:55:39;;;;;;;;;;;15.60;94.40;;;;;;5095787;28;19928;-39
2022/11/12 01:58:05;;;;;;;;;;;15.60;94.30;;;;;;5095441;28;19920;-39
2022/11/12 02:00:30;;;;;;;;;;;15.60;94.30;;;;;;5095794;28;19908;-39
2022/11/12 02:03:00;;;;;;;;;;;15.60;94.40;;;;;;5095457;28;19912;-39
2022/11/12 02:05:27;;;;;;;;;;;15.60;94.40;;;;;;5095658;28;19919;-39
2022/11/12 02:07:52;;;;;;;;;;;15.60;94.40;;;;;;5077063;28;19963;-40
2022/11/12 02:10:19;;;;;;;;;;;15.60;94.40;;;;;;5095244;28;19959;-39
2022/11/12 02:15:28;;;;;;;;;;;15.60;94.40;;;;;;5095321;28;20472;-39
2022/11/12 02:17:54;;;;;;;;;;;15.60;94.40;;;;;;5095494;28;19916;-39
2022/11/12 02:20:19;;;;;;;;;;;15.60;94.40;;;;;;5095164;28;20399;-39
2022/11/12 02:22:45;;;;;;;;;;;15.60;94.40;;;;;;5095300;28;19915;-40
2022/11/12 02:25:17;;;;;;;;;;;15.60;94.40;;;;;;5094912;28;19984;-40
2022/11/12 02:27:43;;;;;;;;;;;15.60;94.40;;;;;;5095169;28;19908;-39
2022/11/12 02:30:09;;;;;;;;;;;15.60;94.40;;;;;;5095185;28;19915;-39
2022/11/12 02:32:34;;;;;;;;;;;15.60;94.40;;;;;;5094784;28;19912;-39
2022/11/12 02:35:00;;;;;;;;;;;15.60;94.40;;;;;;5095082;28;19938;-39
2022/11/12 02:37:25;;;;;;;;;;;15.60;94.40;;;;;;5094792;28;20314;-39
2022/11/12 02:39:50;;;;;;;;;;;15.60;94.40;;;;;;5094704;28;19945;-39
2022/11/12 02:42:16;;;;;;;;;;;15.60;94.40;;;;;;5094605;28;19909;-39
2022/11/12 02:44:41;;;;;;;;;;;15.60;94.40;;;;;;5094377;28;19944;-39
2022/11/12 02:47:07;;;;;;;;;;;15.60;94.30;;;;;;5094735;28;19912;-39
2022/11/12 02:49:32;;;;;;;;;;;15.60;94.30;;;;;;5094527;28;19951;-39
2022/11/12 02:51:58;;;;;;;;;;;15.60;94.30;;;;;;5094800;28;20400;-39
2022/11/12 02:54:23;;;;;;;;;;;15.60;94.40;;;;;;5094497;28;19986;-40
2022/11/12 02:56:49;;;;;;;;;;;15.60;94.40;;;;;;5094700;28;19912;-39
2022/11/12 02:59:14;;;;;;;;;;;15.60;94.40;;;;;;5094568;28;20376;-39
2022/11/12 03:01:40;;;;;;;;;;;15.60;94.40;;;;;;5094612;28;19953;-39
2022/11/12 03:04:05;;;;;;;;;;;15.60;94.40;;;;;;5094501;28;19951;-39
2022/11/12 03:06:30;;;;;;;;;;;15.60;94.40;;;;;;5094343;28;19909;-39
2022/11/12 03:08:56;;;;;;;;;;;15.50;94.40;;;;;;5094557;28;20303;-40
2022/11/12 03:11:21;;;;;;;;;;;15.60;94.40;;;;;;5094186;28;19962;-39
2022/11/12 03:13:47;;;;;;;;;;;15.50;94.40;;;;;;5091918;28;19923;-39
2022/11/12 03:16:12;;;;;;;;;;;15.50;94.40;;;;;;5082511;28;19955;-39
2022/11/12 03:18:38;;;;;;;;;;;15.50;94.40;;;;;;5094257;28;19916;-39
2022/11/12 03:21:04;;;;;;;;;;;15.50;94.40;;;;;;5093868;28;19996;-39
2022/11/12 03:23:29;;;;;;;;;;;15.50;94.40;;;;;;5093904;28;19908;-39
2022/11/12 03:25:55;;;;;;;;;;;15.50;94.40;;;;;;5094316;28;19916;-39
2022/11/12 03:28:21;;;;;;;;;;;15.50;94.40;;;;;;5094321;28;19962;-39
2022/11/12 03:30:46;;;;;;;;;;;15.50;94.40;;;;;;5080479;28;20350;-39
2022/11/12 03:33:12;;;;;;;;;;;15.50;94.40;;;;;;5094020;28;19904;-39
2022/11/12 03:35:38;;;;;;;;;;;15.50;94.40;;;;;;5094119;28;19919;-39
2022/11/12 03:38:04;;;;;;;;;;;15.50;94.40;;;;;;5094208;28;19908;-39
2022/11/12 03:40:30;;;;;;;;;;;15.50;94.40;;;;;;5094154;28;20329;-40
2022/11/12 03:42:56;;;;;;;;;;;15.50;94.40;;;;;;5094242;28;19904;-39
2022/11/12 03:45:23;;;;;;;;;;;15.50;94.40;;;;;;5094159;28;19905;-39
2022/11/12 03:47:49;;;;;;;;;;;15.50;94.40;;;;;;5083589;28;19917;-39
2022/11/12 03:50:16;;;;;;;;;;;15.50;94.40;;;;;;5090893;28;20302;-39
2022/11/12 03:52:45;;;;;;;;;;;15.50;94.40;;;;;;5093609;28;20346;-39
2022/11/12 03:55:11;;;;;;;;;;;15.50;94.40;;;;;;5093838;28;20006;-39
2022/11/12 03:57:37;;;;;;;;;;;15.50;94.40;;;;;;5075772;28;19912;-39
2022/11/12 04:00:03;;;;;;;;;;;15.50;94.40;;;;;;5093243;28;19909;-39
2022/11/12 04:02:29;;;;;;;;;;;15.50;94.40;;;;;;5092089;28;19992;-40
2022/11/12 04:08:39;;;;;;;;;;;15.50;94.40;;;;;;5096038;28;19934;-41
2022/11/12 04:10:34;;;;;;;;;;;15.50;94.40;;;;;;5082228;28;19908;-41
2022/11/12 04:15:44;;;;;;;;;;;15.50;94.40;;;;;;5095831;28;19949;-39
2022/11/12 04:23:38;;;;;;;;;;;15.50;94.40;;;;;;5097754;28;19916;-39
2022/11/12 04:26:22;;;;;;;;;;;15.40;94.40;;;;;;5097162;28;19912;-40
2022/11/12 04:31:31;;;;;;;;;;;15.50;94.40;;;;;;5097099;28;19917;-39
2022/11/12 04:34:27;;;;;;;;;;;15.50;94.40;;;;;;5097293;28;19916;-40
2022/11/12 04:36:42;;;;;;;;;;;15.40;94.40;;;;;;5096904;28;19962;-39
2022/11/12 04:39:07;;;;;;;;;;;15.50;94.40;;;;;;5097291;28;19911;-39
2022/11/12 04:47:01;;;;;;;;;;;15.50;94.50;;;;;;5097301;28;20446;-39
2022/11/12 04:49:27;;;;;;;;;;;15.40;94.40;;;;;;5097190;28;19994;-39
2022/11/12 04:52:04;;;;;;;;;;;15.50;94.40;;;;;;5096854;28;20385;-39
2022/11/12 04:54:30;;;;;;;;;;;15.50;94.40;;;;;;5096780;28;19915;-39
2022/11/12 04:56:55;;;;;;;;;;;15.40;94.40;;;;;;5097003;28;20271;-40
2022/11/12 04:59:21;;;;;;;;;;;15.40;94.40;;;;;;5096919;28;20397;-39
2022/11/12 05:01:46;;;;;;;;;;;15.40;94.40;;;;;;5096565;28;19927;-39
2022/11/12 05:04:12;;;;;;;;;;;15.50;94.50;;;;;;5096483;28;19909;-39
2022/11/12 05:06:52;;;;;;;;;;;15.50;94.50;;;;;;5096663;28;19935;-39
2022/11/12 05:09:19;;;;;;;;;;;15.40;94.40;;;;;;5096383;28;19965;-39
2022/11/12 05:11:44;;;;;;;;;;;15.40;94.50;;;;;;5096686;28;19908;-39
2022/11/12 05:14:10;;;;;;;;;;;15.40;94.40;;;;;;5096599;28;19915;-39
2022/11/12 05:16:36;;;;;;;;;;;15.40;94.40;;;;;;5077979;28;19912;-39
2022/11/12 05:19:01;;;;;;;;;;;15.40;94.40;;;;;;5096044;28;19912;-39
2022/11/12 05:24:11;;;;;;;;;;;15.40;94.50;;;;;;5096635;28;20008;-39
2022/11/12 05:26:36;;;;;;;;;;;15.40;94.50;;;;;;5096082;28;19908;-39
2022/11/12 05:29:02;;;;;;;;;;;15.40;94.50;;;;;;5096084;28;20277;-39
2022/11/12 05:31:28;;;;;;;;;;;15.40;94.50;;;;;;5095852;28;19912;-39
2022/11/12 05:33:54;;;;;;;;;;;15.40;94.50;;;;;;5096142;28;20275;-39
2022/11/12 05:36:19;;;;;;;;;;;15.40;94.50;;;;;;5095788;28;20016;-39
2022/11/12 05:38:44;;;;;;;;;;;15.40;94.50;;;;;;5096505;28;19913;-39
2022/11/12 05:41:10;;;;;;;;;;;15.40;94.50;;;;;;5096123;28;20212;-39
2022/11/12 05:43:35;;;;;;;;;;;15.40;94.50;;;;;;5096089;28;19915;-39
2022/11/12 05:46:01;;;;;;;;;;;15.40;94.50;;;;;;5096057;28;19984;-39
2022/11/12 05:48:26;;;;;;;;;;;15.40;94.50;;;;;;5095994;28;19943;-40
2022/11/12 05:50:52;;;;;;;;;;;15.40;94.50;;;;;;5096177;28;19908;-39
2022/11/12 05:53:18;;;;;;;;;;;15.40;94.50;;;;;;5095792;28;19965;-39
2022/11/12 05:55:43;;;;;;;;;;;15.30;94.50;;;;;;5095425;28;19912;-39
2022/11/12 05:58:09;;;;;;;;;;;15.40;94.50;;;;;;5095778;28;20248;-39
2022/11/12 06:00:37;;;;;;;;;;;15.40;94.50;;;;;;5096094;28;19908;-39
2022/11/12 06:03:12;;;;;;;;;;;15.40;94.50;;;;;;5095311;28;19908;-39
2022/11/12 06:05:37;;;;;;;;;;;15.40;94.50;;;;;;5095739;28;19908;-39
2022/11/12 06:08:04;;;;;;;;;;;15.40;94.50;;;;;;5095498;28;19920;-39
2022/11/12 06:10:30;;;;;;;;;;;15.40;94.50;;;;;;5095487;28;19991;-40
2022/11/12 06:12:55;;;;;;;;;;;15.30;94.50;;;;;;5095288;28;19955;-39
2022/11/12 06:15:21;;;;;;;;;;;15.30;94.50;;;;;;5095323;28;19912;-39
2022/11/12 06:17:46;;;;;;;;;;;15.40;94.50;;;;;;5095388;28;19912;-40
2022/11/12 06:20:12;;;;;;;;;;;15.30;94.50;;;;;;5095227;28;19933;-39
2022/11/12 06:22:37;;;;;;;;;;;15.30;94.50;;;;;;5095161;28;19912;-39
2022/11/12 06:25:04;;;;;;;;;;;15.30;94.50;;;;;;5094964;28;19925;-39
2022/11/12 06:27:30;;;;;;;;;;;15.30;94.50;;;;;;5094906;28;20282;-39
2022/11/12 06:29:55;;;;;;;;;;;15.30;94.50;;;;;;5094558;28;19930;-40
2022/11/12 06:32:21;;;;;;;;;;;15.30;94.50;;;;;;5095096;28;19908;-39
2022/11/12 06:34:46;;;;;;;;;;;15.30;94.50;;;;;;5095076;28;19913;-39
2022/11/12 06:37:12;;;;;;;;;;;15.30;94.50;;;;;;5094775;28;19916;-39
2022/11/12 06:39:37;;;;;;;;;;;15.30;94.60;;;;;;5094943;28;20354;-39
2022/11/12 06:42:03;;;;;;;;;;;15.30;94.50;;;;;;5094586;28;19909;-40
2022/11/12 06:44:28;;;;;;;;;;;15.30;94.60;;;;;;5094673;28;19947;-40
2022/11/12 06:46:54;;;;;;;;;;;15.30;94.60;;;;;;5094712;28;19908;-39
2022/11/12 06:49:19;;;;;;;;;;;15.30;94.60;;;;;;5095098;28;20308;-39
2022/11/12 06:51:44;;;;;;;;;;;15.30;94.60;;;;;;5094799;28;19915;-39
2022/11/12 06:54:10;;;;;;;;;;;15.30;94.60;;;;;;5094534;28;19908;-39
2022/11/12 06:56:35;;;;;;;;;;;15.30;94.60;;;;;;5094599;28;19912;-39
2022/11/12 06:59:01;;;;;;;;;;;15.30;94.60;;;;;;5094536;28;20366;-39
2022/11/12 07:01:27;;;;;;;;;;;15.30;94.60;;;;;;5094559;28;20263;-39
2022/11/12 07:03:52;;;;;;;;;;;15.30;94.60;;;;;;5082544;28;20383;-39
2022/11/12 07:06:19;;;;;;;;;;;15.30;94.50;;;;;;5092488;28;19916;-39
2022/11/12 07:08:50;;;;;;;;;;;15.30;94.50;;;;;;5091539;28;19959;-39
2022/11/12 07:11:16;;;;;;;;;;;15.30;94.50;;;;;;5082934;28;19912;-39
2022/11/12 07:13:45;;;;;;;;;;;15.30;94.50;;;;;;5093864;28;20385;-39
2022/11/12 07:16:11;;;;;;;;;;;15.30;94.50;;;;;;5093795;28;19924;-39
2022/11/12 07:18:37;;;;;;;;;;;15.30;94.50;;;;;;5093793;28;20380;-39
2022/11/12 07:21:03;;;;;;;;;;;15.30;94.50;;;;;;5092762;28;19914;-40
2022/11/12 07:23:30;;;;;;;;;;;15.30;94.50;;;;;;5081637;28;19938;-40
2022/11/12 07:25:59;;;;;;;;;;;15.30;94.50;;;;;;5094028;28;19939;-39
2022/11/12 07:28:25;;;;;;;;;;;15.30;94.50;;;;;;5093609;28;20358;-39
2022/11/12 07:30:57;;;;;;;;;;;15.30;94.50;;;;;;5093972;28;19912;-39
2022/11/12 07:33:23;;;;;;;;;;;15.30;94.50;;;;;;5093928;28;19943;-38
2022/11/12 07:35:48;;;;;;;;;;;15.30;94.50;;;;;;5108623;28;19966;-39
2022/11/12 07:38:13;;;;;;;;;;;15.30;94.60;;;;;;5110760;28;20002;-39
2022/11/12 07:40:39;;;;;;;;;;;15.30;94.70;;;;;;5106061;28;19915;-39
2022/11/12 07:43:04;;;;;;;;;;;15.30;94.80;;;;;;5093610;28;20422;-39
2022/11/12 07:45:30;;;;;;;;;;;15.30;94.70;;;;;;5093631;28;19919;-39
2022/11/12 07:47:57;;;;;;;;;;;15.30;94.60;;;;;;5093543;28;19908;-38
2022/11/12 07:50:23;;;;;;;;;;;15.30;94.60;;;;;;5093665;28;19913;-39
2022/11/12 07:52:49;;;;;;;;;;;15.30;94.60;;;;;;5075617;28;19916;-39
2022/11/12 07:55:14;;;;;;;;;;;15.30;94.60;;;;;;5093814;28;19923;-39
2022/11/12 07:57:40;;;;;;;;;;;15.30;94.60;;;;;;5093799;28;19995;-39
2022/11/12 08:00:06;;;;;;;;;;;15.20;94.60;;;;;;5093412;28;19908;-39
2022/11/12 08:02:32;;;;;;;;;;;15.30;94.60;;;;;;5093596;28;19934;-39
2022/11/12 08:04:57;;;;;;;;;;;15.30;94.60;;;;;;5093867;28;19912;-40
2022/11/12 08:07:23;;;;;;;;;;;15.30;94.60;;;;;;5093544;28;19908;-39
2022/11/12 08:09:48;;;;;;;;;;;15.30;94.60;;;;;;5093300;28;19983;-39
2022/11/12 08:12:14;;;;;;;;;;;15.20;94.50;;;;;;5093713;28;19908;-39
2022/11/12 08:14:39;;;;;;;;;;;15.30;94.50;;;;;;5093693;28;19908;-39
2022/11/12 08:17:05;;;;;;;;;;;15.30;94.50;;;;;;5093357;28;19912;-40
2022/11/12 08:19:30;;;;;;;;;;;15.30;94.50;;;;;;5093525;28;19934;-39
2022/11/12 08:21:55;;;;;;;;;;;15.30;94.50;;;;;;5091443;28;19915;-40
2022/11/12 08:24:21;;;;;;;;;;;15.30;94.50;;;;;;5082246;28;20017;-39
2022/11/12 08:26:46;;;;;;;;;;;15.30;94.50;;;;;;5093241;28;20319;-39
2022/11/12 08:29:12;;;;;;;;;;;15.30;94.50;;;;;;5093261;28;19908;-39
2022/11/12 08:31:37;;;;;;;;;;;15.30;94.40;;;;;;5092156;28;19912;-40
2022/11/12 08:34:10;;;;;;;;;;;15.30;94.40;;;;;;5091947;28;19930;-40
2022/11/12 08:36:36;;;;;;;;;;;15.30;94.40;;;;;;5085439;28;19955;-39
2022/11/12 08:39:02;;;;;;;;;;;15.30;94.40;;;;;;5090204;28;19964;-39
2022/11/12 08:41:27;;;;;;;;;;;15.30;94.40;;;;;;5093060;28;19966;-39
2022/11/12 08:43:52;;;;;;;;;;;15.30;94.40;;;;;;5094934;28;19912;-41
2022/11/12 08:46:18;;;;;;;;;;;15.30;94.40;;;;;;5109949;28;20400;-39
2022/11/12 08:48:43;;;;;;;;;;;15.30;94.40;;;;;;5106599;28;19912;-40
2022/11/12 08:51:09;;;;;;;;;;;15.30;94.40;;;;;;5106964;28;19966;-39
2022/11/12 08:53:34;;;;;;;;;;;15.30;94.40;;;;;;5111486;28;19923;-38
2022/11/12 08:56:00;;;;;;;;;;;15.30;94.50;;;;;;5111588;28;19916;-39
2022/11/12 08:58:26;;;;;;;;;;;15.30;94.40;;;;;;5115914;28;19912;-38
2022/11/12 09:00:51;;;;;;;;;;;15.30;94.40;;;;;;5100481;28;19930;-40
2022/11/12 09:03:18;;;;;;;;;;;15.30;94.40;;;;;;5100897;28;19912;-39
2022/11/12 09:05:44;;;;;;;;;;;15.30;94.40;;;;;;5100598;28;19912;-40
2022/11/12 09:08:11;;;;;;;;;;;15.30;94.40;;;;;;5091077;28;19931;-38
2022/11/12 09:10:37;;;;;;;;;;;15.30;94.40;;;;;;5098223;28;19921;-42
2022/11/12 09:13:03;;;;;;;;;;;15.30;94.40;;;;;;5089723;28;19912;-41
2022/11/12 09:15:28;;;;;;;;;;;15.30;94.30;;;;;;5106963;28;19919;-38
2022/11/12 09:17:54;;;;;;;;;;;15.40;94.30;;;;;;5114432;28;19915;-38
2022/11/12 09:20:20;;;;;;;;;;;15.40;94.20;;;;;;5101338;28;19916;-38
2022/11/12 09:22:45;;;;;;;;;;;15.40;94.20;;;;;;5116473;28;19914;-38
2022/11/12 09:25:11;;;;;;;;;;;15.40;94.10;;;;;;5102130;28;19912;-38
2022/11/12 09:27:36;;;;;;;;;;;15.40;94.10;;;;;;5100778;28;20010;-38
2022/11/12 09:30:03;;;;;;;;;;;15.40;94.10;;;;;;5096981;28;19917;-38
2022/11/12 09:32:29;;;;;;;;;;;15.40;94.00;;;;;;5084583;28;20354;-38
2022/11/12 09:34:54;;;;;;;;;;;15.40;94.00;;;;;;5095593;28;19919;-38
2022/11/12 09:37:19;;;;;;;;;;;15.40;94.00;;;;;;5095637;28;19962;-38
2022/11/12 09:39:45;;;;;;;;;;;15.40;94.00;;;;;;5096138;28;19919;-38
2022/11/12 09:42:13;;;;;;;;;;;15.40;94.00;;;;;;5096015;28;19908;-38
2022/11/12 09:44:40;;;;;;;;;;;15.40;94.00;;;;;;5081428;28;20424;-38
2022/11/12 09:47:15;;;;;;;;;;;15.40;94.00;;;;;;5083611;28;20050;-38
2022/11/12 09:49:49;;;;;;;;;;;15.30;94.00;;;;;;5095571;28;19946;-38
2022/11/12 09:52:25;;;;;;;;;;;15.40;94.00;;;;;;5095446;28;19903;-38
2022/11/12 09:54:56;;;;;;;;;;;15.40;93.90;;;;;;5098885;28;20007;-38
2022/11/12 09:57:22;;;;;;;;;;;15.40;93.90;;;;;;5072280;28;19917;-39
2022/11/12 09:59:47;;;;;;;;;;;15.40;93.90;;;;;;5081279;28;19924;-39
2022/11/12 10:02:25;;;;;;;;;;;15.40;93.80;;;;;;5094553;28;19912;-40
2022/11/12 10:07:53;;;;;;;;;;;15.40;94.00;;;;;;5089278;28;20021;-40
2022/11/12 10:10:34;;;;;;;;;;;15.40;94.00;;;;;;5099209;28;19939;-40
2022/11/12 10:13:18;;;;;;;;;;;15.40;94.00;;;;;;5110037;28;19918;-39
2022/11/12 10:19:00;;;;;;;;;;;15.40;94.20;;;;;;5095270;28;20397;-39
2022/11/12 10:21:33;;;;;;;;;;;15.50;94.20;;;;;;5074729;28;20275;-39
2022/11/12 10:23:59;;;;;;;;;;;15.40;94.30;;;;;;5075115;28;20283;-39
2022/11/12 10:26:25;;;;;;;;;;;15.50;94.30;;;;;;5074519;28;19909;-39
2022/11/12 10:29:09;;;;;;;;;;;15.50;94.40;;;;;;5089916;28;19959;-40
2022/11/12 10:31:34;;;;;;;;;;;15.50;94.40;;;;;;5102849;28;19912;-39
2022/11/12 10:34:12;;;;;;;;;;;15.50;94.40;;;;;;5082776;28;19913;-39
2022/11/12 10:36:39;;;;;;;;;;;15.50;94.50;;;;;;5073747;28;19951;-39
2022/11/12 10:39:04;;;;;;;;;;;15.50;94.40;;;;;;5082747;28;19919;-39
2022/11/12 10:41:31;;;;;;;;;;;15.50;94.40;;;;;;5093958;28;20006;-39
2022/11/12 10:44:01;;;;;;;;;;;15.50;94.30;;;;;;5087423;28;19912;-39
2022/11/12 10:46:36;;;;;;;;;;;15.50;94.30;;;;;;5102603;28;19912;-39
2022/11/12 10:49:03;;;;;;;;;;;15.50;94.30;;;;;;5103005;28;20007;-42
2022/11/12 10:51:30;;;;;;;;;;;15.50;94.30;;;;;;5114707;28;19912;-39
2022/11/12 10:53:56;;;;;;;;;;;15.50;94.30;;;;;;5109826;28;19965;-39
2022/11/12 10:56:26;;;;;;;;;;;15.50;94.30;;;;;;5109945;28;19919;-39
2022/11/12 10:59:12;;;;;;;;;;;15.50;94.20;;;;;;5110520;28;19916;-39
2022/11/12 11:01:38;;;;;;;;;;;15.50;94.20;;;;;;5105918;28;19961;-43
2022/11/12 11:04:07;;;;;;;;;;;15.60;94.20;;;;;;5102644;28;19920;-39
2022/11/12 11:06:33;;;;;;;;;;;15.50;94.20;;;;;;5094516;28;19912;-40
2022/11/12 11:09:08;;;;;;;;;;;15.50;94.20;;;;;;5088404;28;20003;-39
2022/11/12 11:11:33;;;;;;;;;;;15.50;94.20;;;;;;5094045;28;19912;-40
2022/11/12 11:14:17;;;;;;;;;;;15.50;94.10;;;;;;5106926;28;19912;-39
2022/11/12 11:16:49;;;;;;;;;;;15.50;94.10;;;;;;5113703;28;19911;-39
2022/11/12 11:19:15;;;;;;;;;;;15.50;94.10;;;;;;5103072;28;19922;-40
2022/11/12 11:21:56;;;;;;;;;;;15.50;94.10;;;;;;5105814;28;19912;-41
2022/11/12 11:24:40;;;;;;;;;;;15.60;94.10;;;;;;5091029;28;20357;-39
2022/11/12 11:27:11;;;;;;;;;;;15.50;94.00;;;;;;5110265;28;20368;-39
2022/11/12 11:29:37;;;;;;;;;;;15.50;94.00;;;;;;5113868;28;19908;-39
2022/11/12 11:32:11;;;;;;;;;;;15.50;94.00;;;;;;5109527;28;19912;-39
2022/11/12 11:34:40;;;;;;;;;;;15.50;94.00;;;;;;5112323;28;20319;-39
2022/11/12 11:37:21;;;;;;;;;;;15.50;94.00;;;;;;5106505;28;19919;-39
2022/11/12 11:40:06;;;;;;;;;;;15.60;94.00;;;;;;5107572;28;19912;-39
2022/11/12 11:42:51;;;;;;;;;;;15.60;94.00;;;;;;5080058;28;19919;-39
2022/11/12 11:45:25;;;;;;;;;;;15.50;94.00;;;;;;5107603;28;19998;-39
2022/11/12 11:48:00;;;;;;;;;;;15.50;94.00;;;;;;5111720;28;19912;-39
2022/11/12 11:50:55;;;;;;;;;;;15.50;93.90;;;;;;5105167;28;20015;-41
2022/11/12 11:53:22;;;;;;;;;;;15.60;94.00;;;;;;5034710;28;19917;-38
2022/11/12 11:56:06;;;;;;;;;;;15.50;94.00;;;;;;5089998;28;19924;-38
2022/11/12 11:58:44;;;;;;;;;;;15.50;94.00;;;;;;5090948;28;19916;-43
2022/11/12 12:01:10;;;;;;;;;;;15.50;94.00;;;;;;5081770;28;19912;-39
2022/11/12 12:04:02;;;;;;;;;;;15.60;94.00;;;;;;5094213;28;19919;-39
2022/11/12 12:06:34;;;;;;;;;;;15.50;94.10;;;;;;5068595;28;20351;-39
2022/11/12 12:09:13;;;;;;;;;;;15.60;94.30;;;;;;5113409;28;19955;-38
2022/11/12 12:11:50;;;;;;;;;;;15.50;94.30;;;;;;5113733;28;19911;-38
2022/11/12 12:14:16;;;;;;;;;;;15.60;94.30;;;;;;5095800;28;19943;-39
2022/11/12 12:16:47;;;;;;;;;;;15.60;94.30;;;;;;5113656;28;19951;-39
2022/11/12 12:19:18;;;;;;;;;;;15.60;94.30;;;;;;5101612;28;19916;-40
2022/11/12 12:21:47;;;;;;;;;;;15.50;94.20;;;;;;5107298;28;20362;-40
2022/11/12 12:24:18;;;;;;;;;;;15.50;94.20;;;;;;5095625;28;19971;-40
2022/11/12 12:27:01;;;;;;;;;;;15.50;94.20;;;;;;5094055;28;19938;-40
2022/11/12 12:29:30;;;;;;;;;;;15.50;94.20;;;;;;5106030;28;19912;-40
2022/11/12 12:32:01;;;;;;;;;;;15.60;94.10;;;;;;5099498;28;19920;-39
2022/11/12 12:34:31;;;;;;;;;;;15.50;94.10;;;;;;5105599;28;19913;-40
2022/11/12 12:37:00;;;;;;;;;;;15.50;94.10;;;;;;5095210;28;19920;-39
2022/11/12 12:39:46;;;;;;;;;;;15.50;94.10;;;;;;5091188;28;19916;-40
2022/11/12 12:42:21;;;;;;;;;;;15.50;94.10;;;;;;5077135;28;19912;-40
2022/11/12 12:45:00;;;;;;;;;;;15.50;94.10;;;;;;5082285;28;19912;-39
2022/11/12 12:47:27;;;;;;;;;;;15.50;94.10;;;;;;5096855;28;19912;-40
2022/11/12 12:49:53;;;;;;;;;;;15.50;94.10;;;;;;5078097;28;19908;-40
2022/11/12 12:52:18;;;;;;;;;;;15.50;94.10;;;;;;5096552;28;20373;-40
2022/11/12 12:54:47;;;;;;;;;;;15.50;94.10;;;;;;5096789;28;20336;-37
2022/11/12 12:57:41;;;;;;;;;;;15.50;94.10;;;;;;5096567;28;19939;-39
2022/11/12 13:00:26;;;;;;;;;;;15.40;94.10;;;;;;5083108;28;19961;-39
2022/11/12 13:02:52;;;;;;;;;;;15.50;94.30;;;;;;5111700;28;19918;-39
2022/11/12 13:05:25;;;;;;;;;;;15.50;94.10;;;;;;5082752;28;19912;-39
2022/11/12 13:07:51;;;;;;;;;;;15.40;94.10;;;;;;5108602;28;19927;-39
2022/11/12 13:10:35;;;;;;;;;;;15.40;94.10;;;;;;5105655;28;20267;-39
2022/11/12 13:13:00;;;;;;;;;;;15.40;94.10;;;;;;5085582;28;19916;-38
2022/11/12 13:15:48;;;;;;;;;;;15.50;94.10;;;;;;5109359;28;19916;-47
2022/11/12 13:18:33;;;;;;;;;;;15.40;94.10;;;;;;5096114;28;19912;-39
2022/11/12 13:21:10;;;;;;;;;;;15.40;94.10;;;;;;5093337;28;20287;-38
2022/11/12 13:24:06;;;;;;;;;;;15.40;94.10;;;;;;5116378;28;19907;-44
2022/11/12 13:26:38;;;;;;;;;;;15.40;94.10;;;;;;5111109;28;19950;-39
2022/11/12 13:29:22;;;;;;;;;;;15.40;94.10;;;;;;5113766;28;19951;-40
2022/11/12 13:31:47;;;;;;;;;;;15.40;94.20;;;;;;5094752;28;19974;-40
2022/11/12 13:34:17;;;;;;;;;;;15.40;94.10;;;;;;5088531;28;20334;-41
2022/11/12 13:36:54;;;;;;;;;;;15.40;94.10;;;;;;5083620;28;19909;-40
2022/11/12 13:39:21;;;;;;;;;;;15.40;94.10;;;;;;5093612;28;19916;-40
2022/11/12 13:44:46;;;;;;;;;;;15.40;94.10;;;;;;5089200;28;20428;-40
2022/11/12 13:47:15;;;;;;;;;;;15.40;94.10;;;;;;5099985;28;19973;-39
2022/11/12 13:49:41;;;;;;;;;;;15.40;94.10;;;;;;5089533;28;19954;-40
2022/11/12 13:52:07;;;;;;;;;;;15.40;94.10;;;;;;5087998;28;19949;-40
2022/11/12 13:54:36;;;;;;;;;;;15.40;94.10;;;;;;5114625;28;19912;-40
2022/11/12 13:57:12;;;;;;;;;;;15.40;94.10;;;;;;5097245;28;19926;-40
2022/11/12 13:59:37;;;;;;;;;;;15.40;94.10;;;;;;5104889;28;19912;-40
2022/11/12 14:02:04;;;;;;;;;;;15.40;94.10;;;;;;5077199;28;19953;-39
2022/11/12 14:04:29;;;;;;;;;;;15.40;94.10;;;;;;5113249;28;19990;-39
2022/11/12 14:07:05;;;;;;;;;;;15.40;94.10;;;;;;5098530;28;20008;-39
2022/11/12 14:09:38;;;;;;;;;;;15.40;94.10;;;;;;5095639;28;20040;-39
2022/11/12 14:12:22;;;;;;;;;;;15.40;94.10;;;;;;5107323;28;19908;-39
2022/11/12 14:15:02;;;;;;;;;;;15.40;94.10;;;;;;5114380;28;19903;-39
2022/11/12 14:17:33;;;;;;;;;;;15.40;94.20;;;;;;5095011;28;20295;-39
2022/11/12 14:20:11;;;;;;;;;;;15.40;94.20;;;;;;5099271;28;19916;-39
2022/11/12 14:22:43;;;;;;;;;;;15.30;94.10;;;;;;5088667;28;19913;-39
2022/11/12 14:25:12;;;;;;;;;;;15.30;94.20;;;;;;5095297;28;20000;-40
2022/11/12 14:27:37;;;;;;;;;;;15.30;94.30;;;;;;5094978;28;19913;-41
2022/11/12 14:30:05;;;;;;;;;;;15.30;94.40;;;;;;5099327;28;20047;-39
2022/11/12 14:32:34;;;;;;;;;;;15.40;94.50;;;;;;5084241;28;19916;-39
2022/11/12 14:34:59;;;;;;;;;;;15.40;94.50;;;;;;5094930;28;19907;-39
2022/11/12 14:37:35;;;;;;;;;;;15.40;94.60;;;;;;5107892;28;20277;-39
2022/11/12 14:40:01;;;;;;;;;;;15.40;94.60;;;;;;5094903;28;19944;-39
2022/11/12 14:42:26;;;;;;;;;;;15.50;94.60;;;;;;5081201;28;19989;-39
2022/11/12 14:44:52;;;;;;;;;;;15.60;94.70;;;;;;5094745;28;19995;-40
2022/11/12 14:47:17;;;;;;;;;;;15.60;94.60;;;;;;5094305;28;19991;-40
2022/11/12 14:49:44;;;;;;;;;;;15.70;94.50;;;;;;5094279;28;19926;-39
2022/11/12 14:52:22;;;;;;;;;;;15.90;94.40;;;;;;5094302;28;19904;-39
2022/11/12 14:54:49;;;;;;;;;;;16.00;94.20;;;;;;5095098;28;20038;-39
2022/11/12 14:57:20;;;;;;;;;;;16.20;94.00;;;;;;5093968;28;19908;-39